Wyoming, Ohio
Current Conditions -  °F | °C
As of 6:53 PM on Tuesday 25 Nov 2014 (Local Time) from KHAO Reporting Station
Clear Clear  
Wind Chill:   Ceiling: Unl
Heat Index:   Visibility: 10mi
Dew Point: -3°   Wind: 3mph
Humidity: 75%   Direction: 360°N
Pressure: 30.18"   Gusts: NA
Location:  39.246°N, 84.538°W
Report Text: KHAO 252353Z AUTO 36003KT 10SM CLR 01/M03 A3018 RMK AO2 SLP225 T00111028 10067 20011 51018
Loading
Personal Weather Stations






























Interactive Weather Map New forecast layout! Learn more

10-Day Weather Forecast

Advertisements
Track Severe Weather on mobile